sensor_id;sensor_type;location;lat;lon;timestamp;temperature;humidity
75190;HTU21D;69198;44.694;37.790;2024-02-28T00:00:19;5.82;47.94
75190;HTU21D;69198;44.694;37.790;2024-02-28T00:01:20;5.80;47.98
75190;HTU21D;69198;44.694;37.790;2024-02-28T00:02:21;5.79;48.00
75190;HTU21D;69198;44.694;37.790;2024-02-28T00:03:22;5.76;48.02
75190;HTU21D;69198;44.694;37.790;2024-02-28T00:04:24;5.74;48.08
75190;HTU21D;69198;44.694;37.790;2024-02-28T00:05:25;5.71;48.12
75190;HTU21D;69198;44.694;37.790;2024-02-28T00:06:26;5.70;48.15
75190;HTU21D;69198;44.694;37.790;2024-02-28T00:07:27;5.70;48.15
75190;HTU21D;69198;44.694;37.790;2024-02-28T00:08:28;5.68;48.18
75190;HTU21D;69198;44.694;37.790;2024-02-28T00:09:29;5.69;48.16
75190;HTU21D;69198;44.694;37.790;2024-02-28T00:10:32;5.69;48.19
75190;HTU21D;69198;44.694;37.790;2024-02-28T00:11:33;5.67;48.23
75190;HTU21D;69198;44.694;37.790;2024-02-28T00:12:34;5.65;48.24
75190;HTU21D;69198;44.694;37.790;2024-02-28T00:13:35;5.63;48.27
75190;HTU21D;69198;44.694;37.790;2024-02-28T00:14:36;5.64;48.28
75190;HTU21D;69198;44.694;37.790;2024-02-28T00:15:38;5.62;48.29
75190;HTU21D;69198;44.694;37.790;2024-02-28T00:16:45;5.63;48.29
75190;HTU21D;69198;44.694;37.790;2024-02-28T00:17:47;5.60;48.34
75190;HTU21D;69198;44.694;37.790;2024-02-28T00:18:48;5.59;48.36
75190;HTU21D;69198;44.694;37.790;2024-02-28T00:19:49;5.60;48.38
75190;HTU21D;69198;44.694;37.790;2024-02-28T00:20:50;5.60;48.40
75190;HTU21D;69198;44.694;37.790;2024-02-28T00:21:51;5.60;48.36
75190;HTU21D;69198;44.694;37.790;2024-02-28T00:22:52;5.59;48.40
75190;HTU21D;69198;44.694;37.790;2024-02-28T00:23:53;5.60;48.40
75190;HTU21D;69198;44.694;37.790;2024-02-28T00:24:54;5.60;48.37
75190;HTU21D;69198;44.694;37.790;2024-02-28T00:25:55;5.63;48.34
75190;HTU21D;69198;44.694;37.790;2024-02-28T00:26:56;5.61;48.38
75190;HTU21D;69198;44.694;37.790;2024-02-28T00:27:57;5.59;48.41
75190;HTU21D;69198;44.694;37.790;2024-02-28T00:28:59;5.59;48.44
75190;HTU21D;69198;44.694;37.790;2024-02-28T00:30:01;5.60;48.44
75190;HTU21D;69198;44.694;37.790;2024-02-28T00:31:02;5.57;48.46
75190;HTU21D;69198;44.694;37.790;2024-02-28T00:32:03;5.57;48.47
75190;HTU21D;69198;44.694;37.790;2024-02-28T00:33:04;5.57;48.49
75190;HTU21D;69198;44.694;37.790;2024-02-28T00:34:05;5.59;48.50
75190;HTU21D;69198;44.694;37.790;2024-02-28T00:35:09;5.57;48.49
75190;HTU21D;69198;44.694;37.790;2024-02-28T00:36:10;5.59;48.48
75190;HTU21D;69198;44.694;37.790;2024-02-28T00:37:11;5.60;48.46
75190;HTU21D;69198;44.694;37.790;2024-02-28T00:38:12;5.59;48.47
75190;HTU21D;69198;44.694;37.790;2024-02-28T00:39:13;5.57;48.52
75190;HTU21D;69198;44.694;37.790;2024-02-28T00:40:14;5.54;48.55
75190;HTU21D;69198;44.694;37.790;2024-02-28T00:41:15;5.55;48.57
75190;HTU21D;69198;44.694;37.790;2024-02-28T00:42:17;5.53;48.61
75190;HTU21D;69198;44.694;37.790;2024-02-28T00:43:18;5.54;48.63
75190;HTU21D;69198;44.694;37.790;2024-02-28T00:44:19;5.53;48.63
75190;HTU21D;69198;44.694;37.790;2024-02-28T00:45:20;5.51;48.68
75190;HTU21D;69198;44.694;37.790;2024-02-28T00:46:21;5.52;48.70
75190;HTU21D;69198;44.694;37.790;2024-02-28T00:47:22;5.50;48.70
75190;HTU21D;69198;44.694;37.790;2024-02-28T00:48:24;5.51;48.70
75190;HTU21D;69198;44.694;37.790;2024-02-28T00:49:26;5.51;48.70
75190;HTU21D;69198;44.694;37.790;2024-02-28T00:50:27;5.52;48.69
75190;HTU21D;69198;44.694;37.790;2024-02-28T00:51:28;5.53;48.70
75190;HTU21D;69198;44.694;37.790;2024-02-28T00:52:29;5.53;48.71
75190;HTU21D;69198;44.694;37.790;2024-02-28T00:53:32;5.52;48.73
75190;HTU21D;69198;44.694;37.790;2024-02-28T00:54:33;5.51;48.75
75190;HTU21D;69198;44.694;37.790;2024-02-28T00:55:34;5.52;48.76
75190;HTU21D;69198;44.694;37.790;2024-02-28T00:56:35;5.52;48.76
75190;HTU21D;69198;44.694;37.790;2024-02-28T00:57:36;5.49;48.79
75190;HTU21D;69198;44.694;37.790;2024-02-28T00:58:37;5.49;48.79
75190;HTU21D;69198;44.694;37.790;2024-02-28T00:59:39;5.49;48.79
75190;HTU21D;69198;44.694;37.790;2024-02-28T01:00:40;5.51;48.74
75190;HTU21D;69198;44.694;37.790;2024-02-28T01:01:41;5.52;48.74
75190;HTU21D;69198;44.694;37.790;2024-02-28T01:02:42;5.54;48.71
75190;HTU21D;69198;44.694;37.790;2024-02-28T01:03:43;5.55;48.69
75190;HTU21D;69198;44.694;37.790;2024-02-28T01:04:44;5.55;48.69
75190;HTU21D;69198;44.694;37.790;2024-02-28T01:05:45;5.56;48.64
75190;HTU21D;69198;44.694;37.790;2024-02-28T01:06:46;5.60;48.61
75190;HTU21D;69198;44.694;37.790;2024-02-28T01:07:50;5.61;48.60
75190;HTU21D;69198;44.694;37.790;2024-02-28T01:08:51;5.62;48.59
75190;HTU21D;69198;44.694;37.790;2024-02-28T01:09:52;5.62;48.56
75190;HTU21D;69198;44.694;37.790;2024-02-28T01:10:53;5.63;48.57
75190;HTU21D;69198;44.694;37.790;2024-02-28T01:11:54;5.63;48.53
75190;HTU21D;69198;44.694;37.790;2024-02-28T01:12:55;5.63;48.49
75190;HTU21D;69198;44.694;37.790;2024-02-28T01:13:56;5.66;48.46
75190;HTU21D;69198;44.694;37.790;2024-02-28T01:14:57;5.67;48.42
75190;HTU21D;69198;44.694;37.790;2024-02-28T01:15:58;5.67;48.41
75190;HTU21D;69198;44.694;37.790;2024-02-28T01:17:00;5.66;48.37
75190;HTU21D;69198;44.694;37.790;2024-02-28T01:18:01;5.67;48.37
75190;HTU21D;69198;44.694;37.790;2024-02-28T01:19:02;5.69;48.36
75190;HTU21D;69198;44.694;37.790;2024-02-28T01:20:04;5.69;48.35
75190;HTU21D;69198;44.694;37.790;2024-02-28T01:21:05;5.68;48.36
75190;HTU21D;69198;44.694;37.790;2024-02-28T01:22:06;5.68;48.34
75190;HTU21D;69198;44.694;37.790;2024-02-28T01:23:07;5.69;48.32
75190;HTU21D;69198;44.694;37.790;2024-02-28T01:24:08;5.68;48.31
75190;HTU21D;69198;44.694;37.790;2024-02-28T01:25:09;5.68;48.31
75190;HTU21D;69198;44.694;37.790;2024-02-28T01:26:10;5.69;48.28
75190;HTU21D;69198;44.694;37.790;2024-02-28T01:27:11;5.70;48.24
75190;HTU21D;69198;44.694;37.790;2024-02-28T01:28:12;5.70;48.23
75190;HTU21D;69198;44.694;37.790;2024-02-28T01:29:13;5.70;48.21
75190;HTU21D;69198;44.694;37.790;2024-02-28T01:30:15;5.69;48.21
75190;HTU21D;69198;44.694;37.790;2024-02-28T01:31:16;5.67;48.21
75190;HTU21D;69198;44.694;37.790;2024-02-28T01:32:17;5.65;48.21
75190;HTU21D;69198;44.694;37.790;2024-02-28T01:33:18;5.62;48.24
75190;HTU21D;69198;44.694;37.790;2024-02-28T01:34:19;5.62;48.25
75190;HTU21D;69198;44.694;37.790;2024-02-28T01:35:20;5.61;48.29
75190;HTU21D;69198;44.694;37.790;2024-02-28T01:36:21;5.57;48.30
75190;HTU21D;69198;44.694;37.790;2024-02-28T01:37:22;5.53;48.37
75190;HTU21D;69198;44.694;37.790;2024-02-28T01:38:23;5.52;48.39
75190;HTU21D;69198;44.694;37.790;2024-02-28T01:39:24;5.49;48.41
75190;HTU21D;69198;44.694;37.790;2024-02-28T01:40:25;5.47;48.45
75190;HTU21D;69198;44.694;37.790;2024-02-28T01:41:26;5.43;48.50
75190;HTU21D;69198;44.694;37.790;2024-02-28T01:42:27;5.41;48.52
75190;HTU21D;69198;44.694;37.790;2024-02-28T01:43:28;5.40;48.57
75190;HTU21D;69198;44.694;37.790;2024-02-28T01:44:29;5.40;48.59
75190;HTU21D;69198;44.694;37.790;2024-02-28T01:45:30;5.36;48.61
75190;HTU21D;69198;44.694;37.790;2024-02-28T01:46:31;5.35;48.66
75190;HTU21D;69198;44.694;37.790;2024-02-28T01:47:33;5.34;48.65
75190;HTU21D;69198;44.694;37.790;2024-02-28T01:48:34;5.35;48.66
75190;HTU21D;69198;44.694;37.790;2024-02-28T01:49:35;5.36;48.68
75190;HTU21D;69198;44.694;37.790;2024-02-28T01:50:36;5.37;48.65
75190;HTU21D;69198;44.694;37.790;2024-02-28T01:51:38;5.37;48.66
75190;HTU21D;69198;44.694;37.790;2024-02-28T01:52:39;5.38;48.66
75190;HTU21D;69198;44.694;37.790;2024-02-28T01:53:40;5.38;48.66
75190;HTU21D;69198;44.694;37.790;2024-02-28T01:54:42;5.36;48.68
75190;HTU21D;69198;44.694;37.790;2024-02-28T01:55:43;5.35;48.70
75190;HTU21D;69198;44.694;37.790;2024-02-28T01:56:44;5.34;48.73
75190;HTU21D;69198;44.694;37.790;2024-02-28T01:57:47;5.31;48.73
75190;HTU21D;69198;44.694;37.790;2024-02-28T01:58:49;5.32;48.75
75190;HTU21D;69198;44.694;37.790;2024-02-28T01:59:50;5.31;48.76
75190;HTU21D;69198;44.694;37.790;2024-02-28T02:00:53;5.31;48.76
75190;HTU21D;69198;44.694;37.790;2024-02-28T02:01:55;5.30;48.76
75190;HTU21D;69198;44.694;37.790;2024-02-28T02:02:56;5.31;48.73
75190;HTU21D;69198;44.694;37.790;2024-02-28T02:03:57;5.32;48.73
75190;HTU21D;69198;44.694;37.790;2024-02-28T02:04:58;5.34;48.70
75190;HTU21D;69198;44.694;37.790;2024-02-28T02:06:02;5.36;48.66
75190;HTU21D;69198;44.694;37.790;2024-02-28T02:07:04;5.37;48.67
75190;HTU21D;69198;44.694;37.790;2024-02-28T02:08:05;5.39;48.62
75190;HTU21D;69198;44.694;37.790;2024-02-28T02:09:06;5.42;48.58
75190;HTU21D;69198;44.694;37.790;2024-02-28T02:10:08;5.43;48.56
75190;HTU21D;69198;44.694;37.790;2024-02-28T02:11:11;5.45;48.51
75190;HTU21D;69198;44.694;37.790;2024-02-28T02:12:13;5.45;48.47
75190;HTU21D;69198;44.694;37.790;2024-02-28T02:13:14;5.45;48.47
75190;HTU21D;69198;44.694;37.790;2024-02-28T02:14:15;5.48;48.41
75190;HTU21D;69198;44.694;37.790;2024-02-28T02:15:16;5.50;48.42
75190;HTU21D;69198;44.694;37.790;2024-02-28T02:16:21;5.53;48.35
75190;HTU21D;69198;44.694;37.790;2024-02-28T02:17:26;5.52;48.32
75190;HTU21D;69198;44.694;37.790;2024-02-28T02:18:27;5.52;48.32
75190;HTU21D;69198;44.694;37.790;2024-02-28T02:19:28;5.54;48.28
75190;HTU21D;69198;44.694;37.790;2024-02-28T02:20:32;5.54;48.28
75190;HTU21D;69198;44.694;37.790;2024-02-28T02:21:41;5.56;48.24
75190;HTU21D;69198;44.694;37.790;2024-02-28T02:22:44;5.55;48.27
75190;HTU21D;69198;44.694;37.790;2024-02-28T02:23:45;5.55;48.22
75190;HTU21D;69198;44.694;37.790;2024-02-28T02:24:47;5.55;48.23
75190;HTU21D;69198;44.694;37.790;2024-02-28T02:25:48;5.54;48.22
75190;HTU21D;69198;44.694;37.790;2024-02-28T02:26:54;5.54;48.20
75190;HTU21D;69198;44.694;37.790;2024-02-28T02:27:55;5.51;48.21
75190;HTU21D;69198;44.694;37.790;2024-02-28T02:28:56;5.49;48.24
75190;HTU21D;69198;44.694;37.790;2024-02-28T02:29:57;5.46;48.24
75190;HTU21D;69198;44.694;37.790;2024-02-28T02:30:58;5.41;48.30
75190;HTU21D;69198;44.694;37.790;2024-02-28T02:32:00;5.36;48.31
75190;HTU21D;69198;44.694;37.790;2024-02-28T02:33:00;5.33;48.35
75190;HTU21D;69198;44.694;37.790;2024-02-28T02:34:02;5.24;48.42
75190;HTU21D;69198;44.694;37.790;2024-02-28T02:35:03;5.18;48.49
75190;HTU21D;69198;44.694;37.790;2024-02-28T02:36:04;5.10;48.57
75190;HTU21D;69198;44.694;37.790;2024-02-28T02:37:05;5.05;48.70
75190;HTU21D;69198;44.694;37.790;2024-02-28T02:38:09;5.00;48.76
75190;HTU21D;69198;44.694;37.790;2024-02-28T02:39:10;4.97;48.82
75190;HTU21D;69198;44.694;37.790;2024-02-28T02:40:12;4.95;48.87
75190;HTU21D;69198;44.694;37.790;2024-02-28T02:41:13;4.94;48.88
75190;HTU21D;69198;44.694;37.790;2024-02-28T02:42:14;4.92;48.89
75190;HTU21D;69198;44.694;37.790;2024-02-28T02:43:15;4.91;48.89
75190;HTU21D;69198;44.694;37.790;2024-02-28T02:44:16;4.89;48.93
75190;HTU21D;69198;44.694;37.790;2024-02-28T02:45:17;4.84;48.95
75190;HTU21D;69198;44.694;37.790;2024-02-28T02:46:18;4.79;49.01
75190;HTU21D;69198;44.694;37.790;2024-02-28T02:47:19;4.74;49.06
75190;HTU21D;69198;44.694;37.790;2024-02-28T02:48:20;4.68;49.14
75190;HTU21D;69198;44.694;37.790;2024-02-28T02:49:21;4.61;49.23
75190;HTU21D;69198;44.694;37.790;2024-02-28T02:50:23;4.57;49.32
75190;HTU21D;69198;44.694;37.790;2024-02-28T02:51:23;4.48;49.44
75190;HTU21D;69198;44.694;37.790;2024-02-28T02:52:26;4.44;49.56
75190;HTU21D;69198;44.694;37.790;2024-02-28T02:53:27;4.38;49.63
75190;HTU21D;69198;44.694;37.790;2024-02-28T02:54:28;4.32;49.74
75190;HTU21D;69198;44.694;37.790;2024-02-28T02:55:29;4.30;49.85
75190;HTU21D;69198;44.694;37.790;2024-02-28T02:56:31;4.29;49.89
75190;HTU21D;69198;44.694;37.790;2024-02-28T02:57:33;4.30;49.94
75190;HTU21D;69198;44.694;37.790;2024-02-28T02:58:34;4.32;49.95
75190;HTU21D;69198;44.694;37.790;2024-02-28T02:59:36;4.36;49.91
75190;HTU21D;69198;44.694;37.790;2024-02-28T03:00:37;4.37;49.88
75190;HTU21D;69198;44.694;37.790;2024-02-28T03:01:38;4.37;49.82
75190;HTU21D;69198;44.694;37.790;2024-02-28T03:02:39;4.33;49.82
75190;HTU21D;69198;44.694;37.790;2024-02-28T03:03:40;4.28;49.86
75190;HTU21D;69198;44.694;37.790;2024-02-28T03:04:41;4.24;49.93
75190;HTU21D;69198;44.694;37.790;2024-02-28T03:05:42;4.21;49.98
75190;HTU21D;69198;44.694;37.790;2024-02-28T03:06:43;4.19;50.03
75190;HTU21D;69198;44.694;37.790;2024-02-28T03:07:44;4.16;50.10
75190;HTU21D;69198;44.694;37.790;2024-02-28T03:08:45;4.10;50.13
75190;HTU21D;69198;44.694;37.790;2024-02-28T03:09:46;4.08;50.21
75190;HTU21D;69198;44.694;37.790;2024-02-28T03:10:48;4.08;50.29
75190;HTU21D;69198;44.694;37.790;2024-02-28T03:11:49;4.13;50.34
75190;HTU21D;69198;44.694;37.790;2024-02-28T03:12:50;4.15;50.32
75190;HTU21D;69198;44.694;37.790;2024-02-28T03:13:51;4.17;50.27
75190;HTU21D;69198;44.694;37.790;2024-02-28T03:14:52;4.20;50.26
75190;HTU21D;69198;44.694;37.790;2024-02-28T03:15:53;4.23;50.21
75190;HTU21D;69198;44.694;37.790;2024-02-28T03:16:54;4.27;50.16
75190;HTU21D;69198;44.694;37.790;2024-02-28T03:17:55;4.28;50.13
75190;HTU21D;69198;44.694;37.790;2024-02-28T03:18:56;4.28;50.09
75190;HTU21D;69198;44.694;37.790;2024-02-28T03:19:58;4.24;50.11
75190;HTU21D;69198;44.694;37.790;2024-02-28T03:20:59;4.20;50.15
75190;HTU21D;69198;44.694;37.790;2024-02-28T03:22:00;4.20;50.18
75190;HTU21D;69198;44.694;37.790;2024-02-28T03:23:01;4.19;50.21
75190;HTU21D;69198;44.694;37.790;2024-02-28T03:24:02;4.20;50.22
75190;HTU21D;69198;44.694;37.790;2024-02-28T03:25:04;4.21;50.24
75190;HTU21D;69198;44.694;37.790;2024-02-28T03:26:05;4.22;50.23
75190;HTU21D;69198;44.694;37.790;2024-02-28T03:27:06;4.24;50.21
75190;HTU21D;69198;44.694;37.790;2024-02-28T03:28:08;4.29;50.22
75190;HTU21D;69198;44.694;37.790;2024-02-28T03:29:09;4.32;50.18
75190;HTU21D;69198;44.694;37.790;2024-02-28T03:30:10;4.36;50.16
75190;HTU21D;69198;44.694;37.790;2024-02-28T03:31:11;4.42;50.13
75190;HTU21D;69198;44.694;37.790;2024-02-28T03:32:12;4.46;50.05
75190;HTU21D;69198;44.694;37.790;2024-02-28T03:33:13;4.53;49.98
75190;HTU21D;69198;44.694;37.790;2024-02-28T03:34:14;4.57;49.90
75190;HTU21D;69198;44.694;37.790;2024-02-28T03:35:15;4.64;49.84
75190;HTU21D;69198;44.694;37.790;2024-02-28T03:36:16;4.69;49.81
75190;HTU21D;69198;44.694;37.790;2024-02-28T03:37:17;4.75;49.73
75190;HTU21D;69198;44.694;37.790;2024-02-28T03:38:18;4.80;49.66
75190;HTU21D;69198;44.694;37.790;2024-02-28T03:39:19;4.83;49.60
75190;HTU21D;69198;44.694;37.790;2024-02-28T03:40:20;4.86;49.55
75190;HTU21D;69198;44.694;37.790;2024-02-28T03:41:22;4.89;49.53
75190;HTU21D;69198;44.694;37.790;2024-02-28T03:42:23;4.89;49.51
75190;HTU21D;69198;44.694;37.790;2024-02-28T03:43:24;4.91;49.47
75190;HTU21D;69198;44.694;37.790;2024-02-28T03:44:25;4.90;49.44
75190;HTU21D;69198;44.694;37.790;2024-02-28T03:45:28;4.89;49.48
75190;HTU21D;69198;44.694;37.790;2024-02-28T03:46:30;4.87;49.48
75190;HTU21D;69198;44.694;37.790;2024-02-28T03:47:31;4.84;49.50
75190;HTU21D;69198;44.694;37.790;2024-02-28T03:48:32;4.81;49.54
75190;HTU21D;69198;44.694;37.790;2024-02-28T03:49:33;4.79;49.56
75190;HTU21D;69198;44.694;37.790;2024-02-28T03:50:34;4.79;49.56
75190;HTU21D;69198;44.694;37.790;2024-02-28T03:51:41;4.79;49.58
75190;HTU21D;69198;44.694;37.790;2024-02-28T03:52:42;4.77;49.62
75190;HTU21D;69198;44.694;37.790;2024-02-28T03:53:43;4.75;49.63
75190;HTU21D;69198;44.694;37.790;2024-02-28T03:54:44;4.74;49.61
75190;HTU21D;69198;44.694;37.790;2024-02-28T03:55:45;4.72;49.60
75190;HTU21D;69198;44.694;37.790;2024-02-28T03:56:46;4.67;49.60
75190;HTU21D;69198;44.694;37.790;2024-02-28T03:57:48;4.65;49.64
75190;HTU21D;69198;44.694;37.790;2024-02-28T03:58:52;4.61;49.66
75190;HTU21D;69198;44.694;37.790;2024-02-28T03:59:54;4.58;49.75
75190;HTU21D;69198;44.694;37.790;2024-02-28T04:00:55;4.53;49.78
75190;HTU21D;69198;44.694;37.790;2024-02-28T04:01:56;4.47;49.82
75190;HTU21D;69198;44.694;37.790;2024-02-28T04:02:57;4.41;49.92
75190;HTU21D;69198;44.694;37.790;2024-02-28T04:03:58;4.35;50.08
75190;HTU21D;69198;44.694;37.790;2024-02-28T04:04:59;4.32;50.28
75190;HTU21D;69198;44.694;37.790;2024-02-28T04:06:00;4.32;50.43
75190;HTU21D;69198;44.694;37.790;2024-02-28T04:07:01;4.32;50.55
75190;HTU21D;69198;44.694;37.790;2024-02-28T04:08:03;4.34;50.62
75190;HTU21D;69198;44.694;37.790;2024-02-28T04:09:04;4.35;50.59
75190;HTU21D;69198;44.694;37.790;2024-02-28T04:10:05;4.36;50.56
75190;HTU21D;69198;44.694;37.790;2024-02-28T04:11:06;4.37;50.53
75190;HTU21D;69198;44.694;37.790;2024-02-28T04:12:08;4.37;50.49
75190;HTU21D;69198;44.694;37.790;2024-02-28T04:13:09;4.37;50.43
75190;HTU21D;69198;44.694;37.790;2024-02-28T04:14:10;4.39;50.43
75190;HTU21D;69198;44.694;37.790;2024-02-28T04:15:12;4.43;50.36
75190;HTU21D;69198;44.694;37.790;2024-02-28T04:16:16;4.46;50.30
75190;HTU21D;69198;44.694;37.790;2024-02-28T04:17:17;4.51;50.23
75190;HTU21D;69198;44.694;37.790;2024-02-28T04:18:18;4.54;50.14
75190;HTU21D;69198;44.694;37.790;2024-02-28T04:19:19;4.59;50.11
75190;HTU21D;69198;44.694;37.790;2024-02-28T04:20:20;4.61;50.05
75190;HTU21D;69198;44.694;37.790;2024-02-28T04:21:21;4.67;49.98
75190;HTU21D;69198;44.694;37.790;2024-02-28T04:22:22;4.69;49.94
75190;HTU21D;69198;44.694;37.790;2024-02-28T04:23:23;4.79;49.92
75190;HTU21D;69198;44.694;37.790;2024-02-28T04:24:24;5.00;49.83
75190;HTU21D;69198;44.694;37.790;2024-02-28T04:25:25;5.31;49.49
75190;HTU21D;69198;44.694;37.790;2024-02-28T04:26:26;5.56;49.05
75190;HTU21D;69198;44.694;37.790;2024-02-28T04:27:27;5.76;48.64
75190;HTU21D;69198;44.694;37.790;2024-02-28T04:28:28;5.94;48.37
75190;HTU21D;69198;44.694;37.790;2024-02-28T04:29:29;6.10;48.08
75190;HTU21D;69198;44.694;37.790;2024-02-28T04:30:30;6.26;47.79
75190;HTU21D;69198;44.694;37.790;2024-02-28T04:31:31;6.44;47.52
75190;HTU21D;69198;44.694;37.790;2024-02-28T04:32:33;6.61;47.26
75190;HTU21D;69198;44.694;37.790;2024-02-28T04:33:34;6.76;47.03
75190;HTU21D;69198;44.694;37.790;2024-02-28T04:34:36;6.89;46.86
75190;HTU21D;69198;44.694;37.790;2024-02-28T04:35:37;6.99;46.74
75190;HTU21D;69198;44.694;37.790;2024-02-28T04:36:38;7.16;46.67
75190;HTU21D;69198;44.694;37.790;2024-02-28T04:37:39;7.39;46.48
75190;HTU21D;69198;44.694;37.790;2024-02-28T04:38:40;7.69;46.14
75190;HTU21D;69198;44.694;37.790;2024-02-28T04:39:41;8.02;45.57
75190;HTU21D;69198;44.694;37.790;2024-02-28T04:40:42;8.30;45.06
75190;HTU21D;69198;44.694;37.790;2024-02-28T04:41:43;8.50;44.63
75190;HTU21D;69198;44.694;37.790;2024-02-28T04:42:44;8.71;44.28
75190;HTU21D;69198;44.694;37.790;2024-02-28T04:43:45;8.92;43.95
75190;HTU21D;69198;44.694;37.790;2024-02-28T04:44:46;9.14;43.74
75190;HTU21D;69198;44.694;37.790;2024-02-28T04:45:47;9.40;43.42
75190;HTU21D;69198;44.694;37.790;2024-02-28T04:46:49;9.71;42.88
75190;HTU21D;69198;44.694;37.790;2024-02-28T04:47:50;10.01;42.41
75190;HTU21D;69198;44.694;37.790;2024-02-28T04:48:53;10.31;41.86
75190;HTU21D;69198;44.694;37.790;2024-02-28T04:49:54;10.58;41.39
75190;HTU21D;69198;44.694;37.790;2024-02-28T04:50:55;10.81;40.85
75190;HTU21D;69198;44.694;37.790;2024-02-28T04:51:56;10.97;40.46
75190;HTU21D;69198;44.694;37.790;2024-02-28T04:52:57;11.17;40.19
75190;HTU21D;69198;44.694;37.790;2024-02-28T04:53:59;11.33;39.82
75190;HTU21D;69198;44.694;37.790;2024-02-28T04:55:00;11.53;39.52
75190;HTU21D;69198;44.694;37.790;2024-02-28T04:56:01;11.71;39.10
75190;HTU21D;69198;44.694;37.790;2024-02-28T04:57:03;11.89;38.77
75190;HTU21D;69198;44.694;37.790;2024-02-28T04:58:04;12.05;38.43
75190;HTU21D;69198;44.694;37.790;2024-02-28T04:59:05;12.20;38.21
75190;HTU21D;69198;44.694;37.790;2024-02-28T05:00:06;12.38;38.03
75190;HTU21D;69198;44.694;37.790;2024-02-28T05:01:08;12.59;37.76
75190;HTU21D;69198;44.694;37.790;2024-02-28T05:02:09;12.74;37.29
75190;HTU21D;69198;44.694;37.790;2024-02-28T05:03:11;12.89;36.88
75190;HTU21D;69198;44.694;37.790;2024-02-28T05:04:12;13.06;36.63
75190;HTU21D;69198;44.694;37.790;2024-02-28T05:05:13;13.25;36.37
75190;HTU21D;69198;44.694;37.790;2024-02-28T05:06:14;13.43;36.11
75190;HTU21D;69198;44.694;37.790;2024-02-28T05:07:15;13.62;35.83
75190;HTU21D;69198;44.694;37.790;2024-02-28T05:08:19;13.80;35.37
75190;HTU21D;69198;44.694;37.790;2024-02-28T05:09:20;13.96;35.12
75190;HTU21D;69198;44.694;37.790;2024-02-28T05:10:21;14.12;34.76
75190;HTU21D;69198;44.694;37.790;2024-02-28T05:11:22;14.24;34.47
75190;HTU21D;69198;44.694;37.790;2024-02-28T05:12:24;14.37;34.28
75190;HTU21D;69198;44.694;37.790;2024-02-28T05:13:25;14.52;33.90
75190;HTU21D;69198;44.694;37.790;2024-02-28T05:14:26;14.66;33.54
75190;HTU21D;69198;44.694;37.790;2024-02-28T05:15:27;14.77;33.45
75190;HTU21D;69198;44.694;37.790;2024-02-28T05:16:28;14.87;33.04
75190;HTU21D;69198;44.694;37.790;2024-02-28T05:17:29;14.99;32.84
75190;HTU21D;69198;44.694;37.790;2024-02-28T05:18:30;15.10;32.62
75190;HTU21D;69198;44.694;37.790;2024-02-28T05:19:31;15.24;32.45
75190;HTU21D;69198;44.694;37.790;2024-02-28T05:20:32;15.38;32.30
75190;HTU21D;69198;44.694;37.790;2024-02-28T05:21:40;15.51;31.79
75190;HTU21D;69198;44.694;37.790;2024-02-28T05:22:42;15.60;31.89
75190;HTU21D;69198;44.694;37.790;2024-02-28T05:23:43;15.74;31.54
75190;HTU21D;69198;44.694;37.790;2024-02-28T05:24:47;15.85;31.27
75190;HTU21D;69198;44.694;37.790;2024-02-28T05:25:48;15.96;31.19
75190;HTU21D;69198;44.694;37.790;2024-02-28T05:26:49;16.10;30.87
75190;HTU21D;69198;44.694;37.790;2024-02-28T05:27:50;16.24;30.54
75190;HTU21D;69198;44.694;37.790;2024-02-28T05:28:51;16.35;30.37
75190;HTU21D;69198;44.694;37.790;2024-02-28T05:29:52;16.49;30.23
75190;HTU21D;69198;44.694;37.790;2024-02-28T05:30:53;16.63;29.93
75190;HTU21D;69198;44.694;37.790;2024-02-28T05:31:54;16.73;29.70
75190;HTU21D;69198;44.694;37.790;2024-02-28T05:32:55;16.79;29.53
75190;HTU21D;69198;44.694;37.790;2024-02-28T05:33:57;16.86;29.42
75190;HTU21D;69198;44.694;37.790;2024-02-28T05:34:58;16.93;29.38
75190;HTU21D;69198;44.694;37.790;2024-02-28T05:36:00;17.04;29.22
75190;HTU21D;69198;44.694;37.790;2024-02-28T05:37:01;17.17;28.98
75190;HTU21D;69198;44.694;37.790;2024-02-28T05:38:02;17.25;28.58
75190;HTU21D;69198;44.694;37.790;2024-02-28T05:39:03;17.31;28.52
75190;HTU21D;69198;44.694;37.790;2024-02-28T05:40:07;17.34;28.19
75190;HTU21D;69198;44.694;37.790;2024-02-28T05:41:08;17.32;28.07
75190;HTU21D;69198;44.694;37.790;2024-02-28T05:42:10;17.32;27.96
75190;HTU21D;69198;44.694;37.790;2024-02-28T05:43:11;17.32;27.71
75190;HTU21D;69198;44.694;37.790;2024-02-28T05:44:12;17.31;27.62
75190;HTU21D;69198;44.694;37.790;2024-02-28T05:45:13;17.34;27.59
75190;HTU21D;69198;44.694;37.790;2024-02-28T05:46:15;17.37;27.33
75190;HTU21D;69198;44.694;37.790;2024-02-28T05:47:16;17.38;27.36
75190;HTU21D;69198;44.694;37.790;2024-02-28T05:48:17;17.40;27.28
75190;HTU21D;69198;44.694;37.790;2024-02-28T05:49:19;17.47;27.30
75190;HTU21D;69198;44.694;37.790;2024-02-28T05:50:20;17.53;27.10
75190;HTU21D;69198;44.694;37.790;2024-02-28T05:51:21;17.52;26.94
75190;HTU21D;69198;44.694;37.790;2024-02-28T05:52:23;17.56;26.94
75190;HTU21D;69198;44.694;37.790;2024-02-28T05:53:24;17.60;26.83
75190;HTU21D;69198;44.694;37.790;2024-02-28T05:54:27;17.61;26.68
75190;HTU21D;69198;44.694;37.790;2024-02-28T05:55:28;17.64;26.63
75190;HTU21D;69198;44.694;37.790;2024-02-28T05:56:30;17.64;26.56
75190;HTU21D;69198;44.694;37.790;2024-02-28T05:57:31;17.68;26.60
75190;HTU21D;69198;44.694;37.790;2024-02-28T05:58:32;17.79;26.59
75190;HTU21D;69198;44.694;37.790;2024-02-28T05:59:33;17.90;26.46
75190;HTU21D;69198;44.694;37.790;2024-02-28T06:00:35;17.97;26.17
75190;HTU21D;69198;44.694;37.790;2024-02-28T06:01:36;18.00;26.04
75190;HTU21D;69198;44.694;37.790;2024-02-28T06:02:38;18.02;25.85
75190;HTU21D;69198;44.694;37.790;2024-02-28T06:03:39;18.03;25.87
75190;HTU21D;69198;44.694;37.790;2024-02-28T06:04:40;18.06;25.66
75190;HTU21D;69198;44.694;37.790;2024-02-28T06:05:41;18.02;25.49
75190;HTU21D;69198;44.694;37.790;2024-02-28T06:06:42;17.96;25.47
75190;HTU21D;69198;44.694;37.790;2024-02-28T06:07:43;17.93;25.61
75190;HTU21D;69198;44.694;37.790;2024-02-28T06:08:44;17.97;25.73
75190;HTU21D;69198;44.694;37.790;2024-02-28T06:09:45;18.02;25.59
75190;HTU21D;69198;44.694;37.790;2024-02-28T06:10:46;18.03;25.59
75190;HTU21D;69198;44.694;37.790;2024-02-28T06:11:48;18.07;25.64
75190;HTU21D;69198;44.694;37.790;2024-02-28T06:12:49;18.17;25.54
75190;HTU21D;69198;44.694;37.790;2024-02-28T06:13:51;18.23;25.53
75190;HTU21D;69198;44.694;37.790;2024-02-28T06:14:52;18.33;25.37
75190;HTU21D;69198;44.694;37.790;2024-02-28T06:15:53;18.47;25.39
75190;HTU21D;69198;44.694;37.790;2024-02-28T06:16:54;18.62;25.02
75190;HTU21D;69198;44.694;37.790;2024-02-28T06:17:58;18.69;24.92
75190;HTU21D;69198;44.694;37.790;2024-02-28T06:19:03;18.74;24.83
75190;HTU21D;69198;44.694;37.790;2024-02-28T06:20:04;18.79;24.59